createdAt,value
2022-11-20T00:02:15.938Z,0.64
2022-11-20T00:07:16.917Z,0.47
2022-11-20T00:12:18.043Z,0.50
2022-11-20T00:17:18.814Z,0.47
2022-11-20T00:22:19.744Z,0.57
2022-11-20T00:27:20.700Z,0.47
2022-11-20T00:32:21.627Z,0.42
2022-11-20T00:37:22.743Z,0.47
2022-11-20T00:42:23.757Z,0.50
2022-11-20T00:47:24.473Z,0.44
2022-11-20T00:52:25.682Z,0.45
2022-11-20T00:57:26.429Z,0.40
2022-11-20T01:02:27.213Z,0.27
2022-11-20T01:07:28.001Z,0.44
2022-11-20T01:12:28.786Z,0.37
2022-11-20T01:17:31.918Z,0.32
2022-11-20T01:22:32.898Z,0.38
2022-11-20T01:27:33.624Z,0.43
2022-11-20T01:32:34.416Z,0.53
2022-11-20T01:37:35.289Z,0.48
2022-11-20T01:42:55.057Z,0.42
2022-11-20T01:47:55.874Z,0.51
2022-11-20T01:53:04.388Z,0.70
2022-11-20T01:58:06.105Z,0.62
2022-11-20T02:03:14.941Z,0.81
2022-11-20T02:08:15.843Z,0.83
2022-11-20T02:13:35.474Z,0.79
2022-11-20T02:18:37.281Z,0.95
2022-11-20T02:23:57.559Z,1.07
2022-11-20T02:29:00.751Z,1.10
2022-11-20T02:34:01.440Z,1.05
2022-11-20T02:39:03.790Z,0.84
2022-11-20T02:44:05.911Z,0.99
2022-11-20T02:49:06.712Z,1.00
2022-11-20T02:54:07.582Z,0.93
2022-11-20T02:59:08.466Z,1.03
2022-11-20T03:04:09.414Z,1.14
2022-11-20T03:09:10.138Z,1.15
2022-11-20T03:14:10.968Z,1.01
2022-11-20T03:19:12.393Z,1.00
2022-11-20T03:24:13.668Z,1.10
2022-11-20T03:29:14.416Z,1.15
2022-11-20T03:34:15.147Z,1.05
2022-11-20T03:39:15.879Z,1.08
2022-11-20T03:44:16.842Z,1.18
2022-11-20T03:49:17.579Z,1.20
2022-11-20T03:54:18.412Z,1.08
2022-11-20T03:59:19.602Z,1.12
2022-11-20T04:04:20.736Z,1.22
2022-11-20T04:09:21.702Z,1.30
2022-11-20T04:14:22.731Z,1.09
2022-11-20T04:19:23.675Z,1.05
2022-11-20T04:24:24.896Z,0.86
2022-11-20T04:29:25.614Z,0.93
2022-11-20T04:34:26.428Z,0.97
2022-11-20T04:39:27.342Z,1.10
2022-11-20T04:44:28.213Z,1.00
2022-11-20T04:49:28.994Z,1.07
2022-11-20T04:54:30.003Z,0.89
2022-11-20T04:59:30.720Z,0.89
2022-11-20T05:04:31.819Z,0.97
2022-11-20T05:09:32.553Z,0.89
2022-11-20T05:14:33.313Z,1.01
2022-11-20T05:19:34.029Z,0.94
2022-11-20T05:24:35.061Z,1.25
2022-11-20T05:29:35.790Z,1.14
2022-11-20T05:34:36.590Z,1.12
2022-11-20T05:39:37.286Z,1.22
2022-11-20T05:44:38.532Z,1.21
2022-11-20T05:49:39.272Z,1.22
2022-11-20T05:54:40.144Z,1.35
2022-11-20T05:59:41.281Z,1.29
2022-11-20T06:04:42.156Z,1.30
2022-11-20T06:09:42.863Z,1.33
2022-11-20T06:14:43.691Z,1.39
2022-11-20T06:19:44.405Z,1.37
2022-11-20T06:24:45.338Z,1.36
2022-11-20T06:29:46.094Z,1.45
2022-11-20T06:34:46.922Z,1.51
2022-11-20T06:39:47.732Z,1.56
2022-11-20T06:44:48.824Z,1.58
2022-11-20T06:49:49.518Z,1.53
2022-11-20T06:54:50.473Z,1.60
2022-11-20T06:59:51.225Z,1.55
2022-11-20T07:04:52.328Z,1.56
2022-11-20T07:09:53.036Z,1.60
2022-11-20T07:14:53.792Z,1.47
2022-11-20T07:19:54.511Z,1.50
2022-11-20T07:24:55.519Z,1.50
2022-11-20T07:29:56.778Z,1.74
2022-11-20T07:34:57.636Z,1.51
2022-11-20T07:39:58.339Z,1.33
2022-11-20T07:44:59.469Z,1.41
2022-11-20T07:50:00.181Z,1.50
2022-11-20T07:55:01.375Z,1.54
2022-11-20T08:00:05.294Z,1.66
2022-11-20T08:05:13.073Z,1.58
2022-11-20T08:10:16.361Z,1.68
2022-11-20T08:15:17.144Z,1.77
2022-11-20T08:20:17.914Z,1.84
2022-11-20T08:25:18.755Z,1.95
2022-11-20T08:30:19.508Z,1.95
2022-11-20T08:35:21.322Z,2.05
2022-11-20T08:40:22.092Z,2.19
2022-11-20T08:45:23.083Z,2.43
2022-11-20T08:50:23.797Z,2.48
2022-11-20T08:55:24.878Z,2.56
2022-11-20T09:00:26.381Z,2.58
2022-11-20T09:05:27.738Z,2.74
2022-11-20T09:10:28.662Z,2.92
2022-11-20T09:15:29.649Z,2.99
2022-11-20T09:20:30.864Z,3.15
2022-11-20T09:25:31.736Z,3.13
2022-11-20T09:30:32.473Z,3.21
2022-11-20T09:35:34.304Z,3.35
2022-11-20T09:40:36.134Z,3.37
2022-11-20T09:46:03.425Z,3.42
2022-11-20T09:53:57.426Z,3.38
2022-11-20T09:59:02.415Z,3.47
2022-11-20T10:04:20.857Z,3.56
2022-11-20T10:09:31.290Z,3.67
2022-11-20T10:16:23.145Z,3.75
2022-11-20T10:25:12.083Z,3.97
2022-11-20T10:30:16.111Z,4.13
2022-11-20T10:35:45.135Z,4.24
2022-11-20T10:40:51.422Z,4.29
2022-11-20T10:46:54.288Z,4.33
2022-11-20T10:52:09.217Z,4.58
2022-11-20T10:57:54.195Z,4.73
2022-11-20T11:02:56.670Z,4.74
2022-11-20T11:07:59.045Z,5.01
2022-11-20T11:12:59.861Z,5.01
2022-11-20T11:18:01.045Z,5.18
2022-11-20T11:23:02.092Z,5.26
2022-11-20T11:28:25.001Z,5.47
2022-11-20T11:33:28.793Z,5.70
2022-11-20T11:38:41.480Z,5.46
2022-11-20T11:44:14.150Z,5.35
2022-11-20T11:49:20.003Z,5.28
2022-11-20T11:54:26.049Z,5.41
2022-11-20T11:59:49.373Z,5.42
2022-11-20T12:04:55.321Z,5.52
2022-11-20T12:09:57.895Z,5.62
2022-11-20T12:14:58.718Z,5.60
2022-11-20T12:19:59.779Z,5.69
2022-11-20T12:25:14.961Z,5.73
2022-11-20T12:30:17.703Z,5.78
2022-11-20T12:44:00.880Z,5.81
2022-11-20T12:49:38.495Z,5.94
2022-11-20T12:56:51.269Z,6.16
2022-11-20T13:02:05.638Z,6.10
2022-11-20T13:07:10.913Z,6.13
2022-11-20T13:12:25.632Z,6.15
2022-11-20T13:17:40.830Z,6.13
2022-11-20T13:22:57.559Z,6.28
2022-11-20T13:28:03.219Z,6.18
2022-11-20T13:33:21.186Z,6.22
2022-11-20T13:38:22.082Z,5.98
2022-11-20T13:43:44.846Z,5.95
2022-11-20T13:48:47.275Z,5.92
2022-11-20T13:54:07.906Z,5.83
2022-11-20T13:59:42.186Z,5.89
2022-11-20T14:04:46.992Z,5.91
2022-11-20T14:09:53.271Z,5.83
2022-11-20T14:14:54.866Z,5.73
2022-11-20T14:20:00.102Z,5.72
2022-11-20T14:25:31.202Z,5.67
2022-11-20T14:31:17.779Z,5.83
2022-11-20T14:36:21.702Z,5.65
2022-11-20T14:41:24.157Z,5.63
2022-11-20T14:46:26.139Z,5.46
2022-11-20T14:51:31.890Z,5.40
2022-11-20T14:56:32.626Z,5.45
2022-11-20T15:01:34.232Z,5.44
2022-11-20T15:06:35.568Z,5.34
2022-11-20T15:11:36.421Z,5.45
2022-11-20T15:16:37.192Z,5.36
2022-11-20T15:21:38.247Z,5.33
2022-11-20T15:26:40.328Z,5.21
2022-11-20T15:31:43.611Z,5.31
2022-11-20T15:36:44.631Z,5.19
2022-11-20T15:41:45.509Z,5.12
2022-11-20T15:46:46.584Z,5.20
2022-11-20T15:51:50.106Z,5.24
2022-11-20T15:56:54.249Z,5.28
2022-11-20T16:01:58.581Z,5.16
2022-11-20T16:07:02.143Z,4.98
2022-11-20T16:12:07.193Z,4.91
2022-11-20T16:17:09.143Z,4.79
2022-11-20T16:22:12.185Z,4.84
2022-11-20T16:27:14.818Z,4.75
2022-11-20T16:32:24.030Z,4.68
2022-11-20T16:37:28.550Z,4.81
2022-11-20T16:42:37.326Z,4.71
2022-11-20T16:47:38.486Z,4.62
2022-11-20T16:52:42.018Z,4.50
2022-11-20T16:57:44.136Z,4.51
2022-11-20T17:02:46.562Z,4.48
2022-11-20T17:07:48.357Z,4.39
2022-11-20T17:12:50.830Z,4.30
2022-11-20T17:17:51.772Z,4.40
2022-11-20T17:22:53.773Z,4.41
2022-11-20T17:28:03.198Z,4.31
2022-11-20T17:33:11.164Z,4.34
2022-11-20T17:38:20.566Z,4.27
2022-11-20T17:43:35.509Z,4.31
2022-11-20T17:48:41.906Z,4.19
2022-11-20T17:54:08.971Z,4.16
2022-11-20T17:59:18.447Z,4.11
2022-11-20T18:04:27.631Z,4.06
2022-11-20T18:09:31.171Z,3.97
2022-11-20T18:14:37.881Z,3.93
2022-11-20T18:20:06.821Z,3.91
2022-11-20T18:25:33.487Z,3.77
2022-11-20T18:30:37.814Z,3.89
2022-11-20T18:35:46.290Z,3.81
2022-11-20T18:40:51.105Z,3.83
2022-11-20T18:46:02.575Z,3.82
2022-11-20T18:51:07.507Z,3.95
2022-11-20T18:56:09.573Z,3.86
2022-11-20T19:01:10.402Z,3.82
2022-11-20T19:06:15.884Z,3.85
2022-11-20T19:11:18.044Z,3.90
2022-11-20T19:16:21.765Z,3.95
2022-11-20T19:21:24.039Z,3.99
2022-11-20T19:26:25.173Z,3.99
2022-11-20T19:31:26.829Z,4.02
2022-11-20T19:36:30.858Z,4.12
2022-11-20T19:41:33.316Z,4.16
2022-11-20T19:46:35.964Z,4.14
2022-11-20T19:51:38.355Z,4.11
2022-11-20T19:56:39.241Z,4.01
2022-11-20T20:01:40.189Z,4.04
2022-11-20T20:06:41.213Z,4.04
2022-11-20T20:11:46.306Z,4.04
2022-11-20T20:16:47.330Z,4.04
2022-11-20T20:21:49.033Z,4.08
2022-11-20T20:26:52.364Z,4.15
2022-11-20T20:31:56.536Z,4.10
2022-11-20T20:36:57.248Z,4.09
2022-11-20T20:41:58.033Z,4.12
2022-11-20T20:46:58.951Z,4.16
2022-11-20T20:52:01.500Z,4.23
2022-11-20T20:57:02.362Z,4.27
2022-11-20T21:02:03.452Z,4.29
2022-11-20T21:07:04.848Z,4.40
2022-11-20T21:12:05.888Z,4.49
2022-11-20T21:17:10.770Z,4.54
2022-11-20T21:22:14.705Z,4.51
2022-11-20T21:27:15.433Z,4.56
2022-11-20T21:32:16.283Z,4.60
2022-11-20T21:37:17.075Z,4.62
2022-11-20T21:42:17.979Z,4.65
2022-11-20T21:47:18.769Z,4.66
2022-11-20T21:52:19.557Z,4.61
2022-11-20T21:57:20.300Z,4.64
2022-11-20T22:02:21.243Z,4.54
2022-11-20T22:07:22.027Z,4.12
2022-11-20T22:12:22.875Z,3.93
2022-11-20T22:18:11.946Z,3.92
2022-11-20T22:23:12.754Z,3.88
2022-11-20T22:28:13.577Z,3.90
2022-11-20T22:33:14.330Z,3.86
2022-11-20T22:38:15.095Z,3.86
2022-11-20T22:43:15.812Z,3.83
2022-11-20T22:48:17.066Z,3.88
2022-11-20T22:53:17.773Z,3.88
2022-11-20T22:58:18.537Z,3.87
2022-11-20T23:03:19.656Z,3.74
2022-11-20T23:08:20.583Z,3.70
2022-11-20T23:13:21.295Z,3.67
2022-11-20T23:18:22.194Z,3.79
2022-11-20T23:23:22.931Z,3.83
2022-11-20T23:28:23.705Z,3.84
2022-11-20T23:33:24.586Z,3.87
2022-11-20T23:38:25.409Z,3.86
2022-11-20T23:43:26.377Z,3.85
2022-11-20T23:48:36.118Z,3.75
2022-11-20T23:53:36.880Z,3.73
2022-11-20T23:58:38.008Z,3.74
